Time;durP1;ratioP1;P1;durP2;ratioP2;P2;SDS_P1;SDS_P2;PMS_P1;PMS_P2;Temp;Humidity;BMP_temperature;BMP_pressure;BME280_temperature;BME280_humidity;BME280_pressure;Samples;Min_cycle;Max_cycle;Signal;HPM_P1;HPM_P2
2021/09/18 00:01:37;;;;;;;4.9;3.1;;;;;;;;;;;;;
2021/09/18 00:04:05;;;;;;;3.4;3;;;;;;;;;;;;;
2021/09/18 00:06:28;;;;;;;3.1;2.6;;;;;;;;;;;;;
2021/09/18 00:08:53;;;;;;;3.5;2.6;;;;;;;;;;;;;
2021/09/18 00:11:18;;;;;;;2.9;2.6;;;;;;;;;;;;;
2021/09/18 00:13:44;;;;;;;2.9;2.6;;;;;;;;;;;;;
2021/09/18 00:16:09;;;;;;;3.6;2.6;;;;;;;;;;;;;
2021/09/18 00:18:35;;;;;;;3.2;2.7;;;;;;;;;;;;;
2021/09/18 00:21:02;;;;;;;2.9;2.4;;;;;;;;;;;;;
2021/09/18 00:23:29;;;;;;;3.7;2.4;;;;;;;;;;;;;
2021/09/18 00:25:54;;;;;;;2.9;2.6;;;;;;;;;;;;;
2021/09/18 00:28:19;;;;;;;3.6;2.4;;;;;;;;;;;;;
2021/09/18 00:30:44;;;;;;;3.2;2.4;;;;;;;;;;;;;
2021/09/18 00:33:09;;;;;;;3.2;2.6;;;;;;;;;;;;;
2021/09/18 00:35:34;;;;;;;2.8;2.5;;;;;;;;;;;;;
2021/09/18 00:38:00;;;;;;;2.9;2.6;;;;;;;;;;;;;
2021/09/18 00:40:25;;;;;;;2.5;2.3;;;;;;;;;;;;;
2021/09/18 00:42:50;;;;;;;3.5;2.4;;;;;;;;;;;;;
2021/09/18 00:45:15;;;;;;;3.4;2.6;;;;;;;;;;;;;
2021/09/18 00:47:40;;;;;;;2.4;2.2;;;;;;;;;;;;;
2021/09/18 00:50:05;;;;;;;3;2.6;;;;;;;;;;;;;
2021/09/18 00:52:30;;;;;;;3.4;2.7;;;;;;;;;;;;;
2021/09/18 00:54:55;;;;;;;2.5;2.3;;;;;;;;;;;;;
2021/09/18 00:57:21;;;;;;;2.8;2.5;;;;;;;;;;;;;
2021/09/18 00:59:47;;;;;;;3.6;2.6;;;;;;;;;;;;;
2021/09/18 01:02:12;;;;;;;2.8;2.5;;;;;;;;;;;;;
2021/09/18 01:04:37;;;;;;;3.2;2.6;;;;;;;;;;;;;
2021/09/18 01:07:03;;;;;;;3.1;2.6;;;;;;;;;;;;;
2021/09/18 01:09:28;;;;;;;2.7;2.5;;;;;;;;;;;;;
2021/09/18 01:11:53;;;;;;;3.2;2.4;;;;;;;;;;;;;
2021/09/18 01:14:18;;;;;;;3.9;2.5;;;;;;;;;;;;;
2021/09/18 01:16:43;;;;;;;2.8;2.5;;;;;;;;;;;;;
2021/09/18 01:19:08;;;;;;;3.6;2.4;;;;;;;;;;;;;
2021/09/18 01:21:33;;;;;;;3.7;2.6;;;;;;;;;;;;;
2021/09/18 01:24:00;;;;;;;3.2;2.8;;;;;;;;;;;;;
2021/09/18 01:26:24;;;;;;;3.7;2.8;;;;;;;;;;;;;
2021/09/18 01:28:50;;;;;;;4.5;3.1;;;;;;;;;;;;;
2021/09/18 01:31:16;;;;;;;3.1;2.6;;;;;;;;;;;;;
2021/09/18 01:33:41;;;;;;;4.9;2.6;;;;;;;;;;;;;
2021/09/18 01:36:06;;;;;;;3.2;2.5;;;;;;;;;;;;;
2021/09/18 01:38:38;;;;;;;3.5;2.8;;;;;;;;;;;;;
2021/09/18 01:41:04;;;;;;;3.5;2.7;;;;;;;;;;;;;
2021/09/18 01:43:29;;;;;;;3.2;2.7;;;;;;;;;;;;;
2021/09/18 01:45:54;;;;;;;2.9;2.6;;;;;;;;;;;;;
2021/09/18 01:48:20;;;;;;;3.9;2.6;;;;;;;;;;;;;
2021/09/18 01:50:46;;;;;;;3.5;2.8;;;;;;;;;;;;;
2021/09/18 01:53:11;;;;;;;4.1;2.8;;;;;;;;;;;;;
2021/09/18 01:55:35;;;;;;;3.9;2.8;;;;;;;;;;;;;
2021/09/18 01:58:01;;;;;;;4.1;2.7;;;;;;;;;;;;;
2021/09/18 02:00:27;;;;;;;3.4;3.1;;;;;;;;;;;;;
2021/09/18 02:02:52;;;;;;;3;2.7;;;;;;;;;;;;;
2021/09/18 02:05:18;;;;;;;4;2.7;;;;;;;;;;;;;
2021/09/18 02:07:43;;;;;;;3.8;2.8;;;;;;;;;;;;;
2021/09/18 02:10:09;;;;;;;3.8;2.7;;;;;;;;;;;;;
2021/09/18 02:12:35;;;;;;;3.4;2.9;;;;;;;;;;;;;
2021/09/18 02:15:01;;;;;;;4.8;2.9;;;;;;;;;;;;;
2021/09/18 02:17:26;;;;;;;4.3;2.9;;;;;;;;;;;;;
2021/09/18 02:19:51;;;;;;;3.4;2.8;;;;;;;;;;;;;
2021/09/18 02:22:16;;;;;;;3.7;2.9;;;;;;;;;;;;;
2021/09/18 02:24:41;;;;;;;3.2;2.7;;;;;;;;;;;;;
2021/09/18 02:27:07;;;;;;;3.1;2.7;;;;;;;;;;;;;
2021/09/18 02:29:32;;;;;;;3.7;2.5;;;;;;;;;;;;;
2021/09/18 02:31:57;;;;;;;2.8;2.5;;;;;;;;;;;;;
2021/09/18 02:34:22;;;;;;;3.2;2.8;;;;;;;;;;;;;
2021/09/18 02:36:47;;;;;;;3.3;2.5;;;;;;;;;;;;;
2021/09/18 02:39:13;;;;;;;3;2.6;;;;;;;;;;;;;
2021/09/18 02:41:39;;;;;;;3.6;3;;;;;;;;;;;;;
2021/09/18 02:44:04;;;;;;;4;3.3;;;;;;;;;;;;;
2021/09/18 02:46:30;;;;;;;4.2;3.6;;;;;;;;;;;;;
2021/09/18 02:48:55;;;;;;;3.6;3.3;;;;;;;;;;;;;
2021/09/18 02:51:21;;;;;;;4.5;3.2;;;;;;;;;;;;;
2021/09/18 02:53:46;;;;;;;3;2.7;;;;;;;;;;;;;
2021/09/18 02:56:12;;;;;;;3.1;2.8;;;;;;;;;;;;;
2021/09/18 02:58:37;;;;;;;2.6;2.4;;;;;;;;;;;;;
2021/09/18 03:01:03;;;;;;;5;2.9;;;;;;;;;;;;;
2021/09/18 03:03:28;;;;;;;4.3;2.7;;;;;;;;;;;;;
2021/09/18 03:06:03;;;;;;;3.7;2.6;;;;;;;;;;;;;
2021/09/18 03:08:29;;;;;;;4.5;2.8;;;;;;;;;;;;;
2021/09/18 03:10:54;;;;;;;3.8;3.1;;;;;;;;;;;;;
2021/09/18 03:13:19;;;;;;;4.1;3.1;;;;;;;;;;;;;
2021/09/18 03:15:44;;;;;;;3.4;2.8;;;;;;;;;;;;;
2021/09/18 03:18:11;;;;;;;3.9;3.1;;;;;;;;;;;;;
2021/09/18 03:20:36;;;;;;;4.2;3;;;;;;;;;;;;;
2021/09/18 03:23:02;;;;;;;4.2;2.7;;;;;;;;;;;;;
2021/09/18 03:25:28;;;;;;;3.8;2.7;;;;;;;;;;;;;
2021/09/18 03:27:53;;;;;;;2.9;2.4;;;;;;;;;;;;;
2021/09/18 03:30:18;;;;;;;3.6;2.7;;;;;;;;;;;;;
2021/09/18 03:32:44;;;;;;;3.4;2.7;;;;;;;;;;;;;
2021/09/18 03:35:09;;;;;;;3.1;2.7;;;;;;;;;;;;;
2021/09/18 03:37:35;;;;;;;3.3;2.7;;;;;;;;;;;;;
2021/09/18 03:40:00;;;;;;;4;2.8;;;;;;;;;;;;;
2021/09/18 03:42:27;;;;;;;4.2;2.9;;;;;;;;;;;;;
2021/09/18 03:44:52;;;;;;;5.2;2.9;;;;;;;;;;;;;
2021/09/18 03:47:18;;;;;;;3.3;2.6;;;;;;;;;;;;;
2021/09/18 03:49:43;;;;;;;3.2;2.5;;;;;;;;;;;;;
2021/09/18 03:52:09;;;;;;;2.5;2.3;;;;;;;;;;;;;
2021/09/18 03:54:34;;;;;;;4;2.6;;;;;;;;;;;;;
2021/09/18 03:56:59;;;;;;;4;2.6;;;;;;;;;;;;;
2021/09/18 03:59:25;;;;;;;4.7;2.7;;;;;;;;;;;;;
2021/09/18 04:02:31;;;;;;;3.3;2.9;;;;;;;11.52;92.99023;937.0442;;;;
2021/09/18 04:04:56;;;;;;;3.1;2.8;;;;;;;11.51;93.36816;937.0274;;;;
2021/09/18 04:07:23;;;;;;;8.3;6;;;;;;;11.4;93.10254;937.1016;;;;
2021/09/18 04:09:49;;;;;;;11.9;7.9;;;;;;;11.39;92.9502;937.1175;;;;
2021/09/18 04:12:13;;;;;;;5.1;4;;;;;;;11.26;93.37988;937.1569;;;;
2021/09/18 04:14:39;;;;;;;5.4;3.1;;;;;;;11.21;92.85547;937.1267;;;;
2021/09/18 04:17:04;;;;;;;3.3;2.1;;;;;;;11.15;91.96191;937.1599;;;;
2021/09/18 04:19:29;;;;;;;2.7;2.1;;;;;;;11.06;91.46484;937.1428;;;;
2021/09/18 04:21:55;;;;;;;2.5;1.8;;;;;;;10.88;91.30078;937.2417;;;;
2021/09/18 04:24:23;;;;;;;5.4;2.7;;;;;;;10.87;91.91406;937.2664;;;;
2021/09/18 04:26:49;;;;;;;6.6;3;;;;;;;10.87;92.54199;937.2338;;;;
2021/09/18 04:29:14;;;;;;;5.3;3;;;;;;;10.85;92.90234;937.2734;;;;
2021/09/18 04:31:41;;;;;;;4.2;2.9;;;;;;;10.9;93.24512;937.2363;;;;
2021/09/18 04:34:04;;;;;;;4.5;2.9;;;;;;;10.91;93.61523;937.3144;;;;
2021/09/18 04:36:30;;;;;;;4.5;3.1;;;;;;;11;93.98828;937.3445;;;;
2021/09/18 04:39:50;;;;;;;5.1;3.2;;;;;;;11.16;93.59863;937.3464;;;;
2021/09/18 04:42:15;;;;;;;4.9;3.2;;;;;;;11.3;93.67578;937.314;;;;
2021/09/18 04:44:40;;;;;;;3.9;3.2;;;;;;;11.5;93.07813;937.4459;;;;
2021/09/18 04:47:05;;;;;;;4.8;3;;;;;;;11.46;93.49121;937.4465;;;;
2021/09/18 04:49:33;;;;;;;4.7;2.8;;;;;;;11.49;93.83105;937.4634;;;;
2021/09/18 04:51:58;;;;;;;4.3;2.8;;;;;;;11.65;93.05371;937.5219;;;;
2021/09/18 04:54:27;;;;;;;4.3;2.9;;;;;;;11.71;92.98535;937.5013;;;;
2021/09/18 04:56:52;;;;;;;4.1;2.9;;;;;;;11.76;93.01953;937.4752;;;;
2021/09/18 04:59:20;;;;;;;4;3.1;;;;;;;11.83;92.89746;937.5167;;;;
2021/09/18 05:01:45;;;;;;;4.1;2.9;;;;;;;11.8;93.0293;937.5179;;;;
2021/09/18 05:04:14;;;;;;;4.5;3;;;;;;;11.69;93.79395;937.5547;;;;
2021/09/18 05:06:41;;;;;;;3.2;2.7;;;;;;;11.7;94.19727;937.6153;;;;
2021/09/18 05:09:06;;;;;;;3.4;2.9;;;;;;;11.77;93.97168;937.6172;;;;
2021/09/18 05:11:40;;;;;;;5.4;3.4;;;;;;;11.8;94.49512;937.601;;;;
2021/09/18 05:14:04;;;;;;;4.8;3.3;;;;;;;11.84;94.50098;937.6117;;;;
2021/09/18 05:16:32;;;;;;;3.6;2.7;;;;;;;11.9;94.17285;937.5815;;;;
2021/09/18 05:18:57;;;;;;;3.8;2.9;;;;;;;11.97;93.41895;937.5898;;;;
2021/09/18 05:21:24;;;;;;;3.9;3.3;;;;;;;12.03;93.36426;937.6046;;;;
2021/09/18 05:23:49;;;;;;;4.5;3.3;;;;;;;12.1;93.19434;937.5242;;;;
2021/09/18 05:26:16;;;;;;;3.8;3;;;;;;;12.12;92.89063;937.5936;;;;
2021/09/18 05:28:42;;;;;;;4.2;3.4;;;;;;;12.07;93.36035;937.6973;;;;
2021/09/18 05:31:07;;;;;;;3.9;3.2;;;;;;;12.27;92.31641;937.678;;;;
2021/09/18 05:33:35;;;;;;;3.3;2.8;;;;;;;12.31;91.87695;937.683;;;;
2021/09/18 05:36:00;;;;;;;3.5;2.8;;;;;;;12.36;91.64746;937.6981;;;;
2021/09/18 05:38:26;;;;;;;3.2;2.9;;;;;;;12.32;92.16504;937.7516;;;;
2021/09/18 05:40:54;;;;;;;4.9;3.7;;;;;;;12.42;92.24414;937.7888;;;;
2021/09/18 05:43:19;;;;;;;6.8;5;;;;;;;12.48;92.4043;937.7425;;;;
2021/09/18 05:45:48;;;;;;;6;5.4;;;;;;;12.59;91.44043;937.7834;;;;
2021/09/18 05:48:13;;;;;;;4.2;3.3;;;;;;;12.49;91.73145;937.7266;;;;
2021/09/18 05:50:44;;;;;;;6.5;5.5;;;;;;;12.39;93.02734;937.7916;;;;
2021/09/18 05:53:15;;;;;;;6.6;4.8;;;;;;;12.51;92.9375;937.7881;;;;
2021/09/18 05:55:40;;;;;;;7.5;6.2;;;;;;;12.35;94.17773;937.7972;;;;
2021/09/18 05:58:11;;;;;;;5.3;4.5;;;;;;;12.49;93.45215;937.8264;;;;
2021/09/18 06:00:36;;;;;;;8.7;6.9;;;;;;;12.55;93.36035;937.7866;;;;
2021/09/18 06:03:02;;;;;;;7.1;5.7;;;;;;;12.53;93.92969;937.8536;;;;
2021/09/18 06:05:27;;;;;;;6.2;4.7;;;;;;;12.67;94.15625;937.8157;;;;
2021/09/18 06:07:56;;;;;;;7;5;;;;;;;12.93;93.43066;937.8727;;;;
2021/09/18 06:10:21;;;;;;;5;4.2;;;;;;;13.17;92.50391;937.84;;;;
2021/09/18 06:12:49;;;;;;;4.8;4.2;;;;;;;13.61;90.61133;937.8208;;;;
2021/09/18 06:15:14;;;;;;;5.1;3.9;;;;;;;14.03;88.07324;937.9171;;;;
2021/09/18 06:17:39;;;;;;;3.7;2.9;;;;;;;14.75;82.75488;937.8883;;;;
2021/09/18 06:20:08;;;;;;;3.2;2.9;;;;;;;15.4;78.59375;937.8901;;;;
2021/09/18 06:22:33;;;;;;;4.7;3.5;;;;;;;15.56;77.95215;937.8543;;;;
2021/09/18 06:25:05;;;;;;;3.9;3.1;;;;;;;16.34;76.02051;937.8561;;;;
2021/09/18 06:27:31;;;;;;;3.3;2.8;;;;;;;15.98;74.38574;937.832;;;;
2021/09/18 06:29:56;;;;;;;5.5;4.4;;;;;;;16.38;73.10059;937.8242;;;;
2021/09/18 06:32:22;;;;;;;3.5;3.2;;;;;;;17.1;70.2998;937.7665;;;;
2021/09/18 06:34:47;;;;;;;3.5;2.8;;;;;;;17.94;66.04492;937.8689;;;;
2021/09/18 06:37:13;;;;;;;5.6;5;;;;;;;17.92;65.65723;937.837;;;;
2021/09/18 06:39:38;;;;;;;8.6;7.8;;;;;;;16.59;71.21289;937.8039;;;;
2021/09/18 06:42:04;;;;;;;2.9;2.6;;;;;;;17.09;70.61035;937.8497;;;;
2021/09/18 06:44:29;;;;;;;2.6;2.4;;;;;;;17.27;69.94336;937.8212;;;;
2021/09/18 06:46:55;;;;;;;4.6;2.3;;;;;;;17.29;68.53125;937.8312;;;;
2021/09/18 06:49:20;;;;;;;3;2.5;;;;;;;15.73;76.18164;937.9012;;;;
2021/09/18 06:54:43;;;;;;;3.6;2.7;;;;;;;14.9;80.81152;937.8987;;;;
2021/09/18 06:57:11;;;;;;;3.6;2.3;;;;;;;15.36;77.39648;937.856;;;;
2021/09/18 06:59:33;;;;;;;4.3;3.6;;;;;;;15.4;77.27734;937.8805;;;;
2021/09/18 07:01:58;;;;;;;3.1;2.2;;;;;;;15.39;78.01465;937.8894;;;;
2021/09/18 07:04:25;;;;;;;2.7;2.4;;;;;;;15.21;77.93848;937.8522;;;;
2021/09/18 07:06:50;;;;;;;3.6;2.7;;;;;;;15.21;78.16797;937.8074;;;;
2021/09/18 07:09:15;;;;;;;4.4;3.9;;;;;;;15.76;77.38672;937.7989;;;;
2021/09/18 07:11:48;;;;;;;3.1;2.2;;;;;;;16.36;75.13281;937.733;;;;
2021/09/18 07:14:13;;;;;;;2.6;2.1;;;;;;;17.24;71.5957;937.8435;;;;
2021/09/18 07:16:38;;;;;;;2.2;2;;;;;;;17.75;69.11426;937.8811;;;;
2021/09/18 07:19:04;;;;;;;3.4;2;;;;;;;16.54;72.07324;937.7564;;;;
2021/09/18 07:21:29;;;;;;;2.1;1.9;;;;;;;17.11;71.77246;937.8412;;;;
2021/09/18 07:23:54;;;;;;;2.3;2.1;;;;;;;17.54;70.11426;937.8047;;;;
2021/09/18 07:26:20;;;;;;;2.6;2.1;;;;;;;17.86;68.5752;937.8358;;;;
2021/09/18 07:28:47;;;;;;;3.2;2.1;;;;;;;17.96;69.2168;937.8453;;;;
2021/09/18 07:31:12;;;;;;;2.3;2.1;;;;;;;18.68;67.03906;937.8533;;;;
2021/09/18 07:33:37;;;;;;;2.8;2;;;;;;;19.35;65.8584;937.8214;;;;
2021/09/18 07:36:02;;;;;;;2.1;1.9;;;;;;;19.5;64.00488;937.8542;;;;
2021/09/18 07:38:29;;;;;;;2.4;2;;;;;;;19.03;64.76367;937.8038;;;;
2021/09/18 07:40:56;;;;;;;2;1.8;;;;;;;18.39;65.05469;937.8845;;;;
2021/09/18 07:43:25;;;;;;;2.2;2;;;;;;;17.94;66.94922;937.8795;;;;
2021/09/18 07:45:55;;;;;;;2.5;2.3;;;;;;;18.11;68.17188;937.8747;;;;
2021/09/18 07:48:20;;;;;;;2.9;2.1;;;;;;;18.81;65.4873;937.8892;;;;
2021/09/18 07:50:45;;;;;;;3.1;1.9;;;;;;;18.69;64.34082;937.8289;;;;
2021/09/18 07:53:11;;;;;;;2;1.8;;;;;;;18.92;64.71289;937.802;;;;
2021/09/18 07:55:36;;;;;;;2.7;1.9;;;;;;;18.55;66.10059;937.837;;;;
2021/09/18 07:58:01;;;;;;;1.9;1.8;;;;;;;18.34;66.56934;937.8549;;;;
2021/09/18 08:00:26;;;;;;;2.2;1.9;;;;;;;19.93;62.67969;937.7863;;;;
2021/09/18 08:02:55;;;;;;;1.6;1.5;;;;;;;20.55;60.53613;937.7383;;;;
2021/09/18 08:05:17;;;;;;;1.8;1.7;;;;;;;20.47;58.62207;937.671;;;;
2021/09/18 08:07:45;;;;;;;2;1.7;;;;;;;21.16;56.78125;937.6741;;;;
2021/09/18 08:10:13;;;;;;;4.8;2.1;;;;;;;20.86;56.19531;937.6937;;;;
2021/09/18 08:12:37;;;;;;;1.7;1.6;;;;;;;21.24;55.62305;937.6501;;;;
2021/09/18 08:15:02;;;;;;;1.7;1.6;;;;;;;22.83;52.80469;937.6133;;;;
2021/09/18 08:17:29;;;;;;;1.9;1.6;;;;;;;22.88;51.26074;937.5892;;;;
2021/09/18 08:19:54;;;;;;;1.7;1.5;;;;;;;22.42;52.43945;937.6188;;;;
2021/09/18 08:22:19;;;;;;;1.5;1.4;;;;;;;22.8;50.52246;937.5637;;;;
2021/09/18 08:24:44;;;;;;;1.7;1.6;;;;;;;23.49;48.40332;937.468;;;;
2021/09/18 08:27:09;;;;;;;2.9;1.8;;;;;;;25.18;45.56445;937.35;;;;
2021/09/18 08:29:54;;;;;;;2.9;1.8;;;;;;;27.23;41.94336;937.4319;;;;
2021/09/18 08:32:19;;;;;;;2.4;1.6;;;;;;;26.71;41.83496;937.4189;;;;
2021/09/18 08:34:44;;;;;;;1.7;1.6;;;;;;;25.72;42.0498;937.375;;;;
2021/09/18 08:37:10;;;;;;;1.8;1.5;;;;;;;25.41;43.98145;937.3247;;;;
2021/09/18 08:39:38;;;;;;;2.1;1.5;;;;;;;25.92;42.68359;937.403;;;;
2021/09/18 08:42:01;;;;;;;1.5;1.4;;;;;;;26.49;41.51953;937.3322;;;;
2021/09/18 08:44:27;;;;;;;1.5;1.4;;;;;;;28.74;37.84766;937.3422;;;;
2021/09/18 08:46:52;;;;;;;1.6;1.5;;;;;;;27.81;37.84082;937.3243;;;;
2021/09/18 08:49:19;;;;;;;1.6;1.5;;;;;;;29.31;35.89453;937.3356;;;;
2021/09/18 08:51:44;;;;;;;2.2;1.8;;;;;;;29.78;35.80078;937.2704;;;;
2021/09/18 08:54:11;;;;;;;1.5;1.4;;;;;;;30.49;33.28906;937.3159;;;;
2021/09/18 08:56:38;;;;;;;1.5;1.4;;;;;;;30.86;32.88574;937.2551;;;;
2021/09/18 08:59:03;;;;;;;1.7;1.5;;;;;;;27.55;38.37695;937.2675;;;;
2021/09/18 09:01:29;;;;;;;1.7;1.4;;;;;;;28.66;36.91406;937.1856;;;;
2021/09/18 09:03:56;;;;;;;1.6;1.5;;;;;;;27.99;37.23828;937.173;;;;
2021/09/18 09:06:21;;;;;;;1.5;1.4;;;;;;;27.91;38.22949;937.1837;;;;
2021/09/18 09:08:46;;;;;;;1.6;1.5;;;;;;;27.55;38.0332;937.1445;;;;
2021/09/18 09:11:12;;;;;;;1.8;1.4;;;;;;;26.04;38.9707;937.1437;;;;
2021/09/18 09:13:37;;;;;;;1.4;1.3;;;;;;;26.72;39.70313;937.17;;;;
2021/09/18 09:16:02;;;;;;;1.6;1.5;;;;;;;26.37;42.39551;937.212;;;;
2021/09/18 09:18:27;;;;;;;1.3;1.2;;;;;;;26.81;40.09082;937.147;;;;
2021/09/18 09:20:52;;;;;;;1.9;1.5;;;;;;;25.98;40.7627;937.1106;;;;
2021/09/18 09:23:18;;;;;;;2.3;1.7;;;;;;;25.65;41.59473;937.1281;;;;
2021/09/18 09:25:46;;;;;;;2;1.4;;;;;;;24.65;44.96875;937.1342;;;;
2021/09/18 09:28:40;;;;;;;1.8;1.6;;;;;;;24.67;44.41504;937.1149;;;;
2021/09/18 09:30:51;;;;;;;2.9;1.9;;;;;;;23.62;46.46484;937.0808;;;;
2021/09/18 09:33:16;;;;;;;1.7;1.6;;;;;;;24.23;43.93555;936.9931;;;;
2021/09/18 09:35:41;;;;;;;1.4;1.3;;;;;;;23.68;47.28223;937.0598;;;;
2021/09/18 09:38:06;;;;;;;1.9;1.8;;;;;;;23.18;49.4502;937.0586;;;;
2021/09/18 09:40:31;;;;;;;1.9;1.7;;;;;;;23.16;52.11523;937.0417;;;;
2021/09/18 09:42:59;;;;;;;2;1.8;;;;;;;22.44;54.14453;937.0744;;;;
2021/09/18 09:45:24;;;;;;;1.9;1.8;;;;;;;22.17;54.04004;937.0338;;;;
2021/09/18 09:47:50;;;;;;;2.1;1.6;;;;;;;21.45;56.91309;937.0634;;;;
2021/09/18 09:50:15;;;;;;;1.8;1.7;;;;;;;21.72;55.58984;937.0064;;;;
2021/09/18 09:52:42;;;;;;;1.9;1.7;;;;;;;21.29;59.75781;937.0858;;;;
2021/09/18 09:55:08;;;;;;;2.3;2;;;;;;;21.38;59.80762;937.093;;;;
2021/09/18 09:57:34;;;;;;;3;1.8;;;;;;;21.68;59.95215;937.0372;;;;
2021/09/18 10:00:00;;;;;;;2.9;2;;;;;;;21.14;61.16602;936.9695;;;;
2021/09/18 10:02:25;;;;;;;1.7;1.6;;;;;;;20.58;62.39746;936.9672;;;;
2021/09/18 10:04:50;;;;;;;2.8;1.9;;;;;;;20.78;61.91113;936.9669;;;;
2021/09/18 10:07:15;;;;;;;3.1;1.9;;;;;;;20.57;60.57324;936.9043;;;;
2021/09/18 10:09:47;;;;;;;2.1;1.9;;;;;;;20.62;62.80078;936.9101;;;;
2021/09/18 10:12:10;;;;;;;2;1.8;;;;;;;21.16;60.88867;936.8617;;;;
2021/09/18 10:14:35;;;;;;;2.7;1.9;;;;;;;20.93;61.0791;936.8861;;;;
2021/09/18 10:17:02;;;;;;;1.9;1.8;;;;;;;21.01;60.66895;936.8342;;;;
2021/09/18 10:20:01;;;;;;;2.2;1.7;;;;;;;20.63;62.06738;936.8095;;;;
2021/09/18 10:24:31;;;;;;;2.1;1.9;;;;;;;21.2;61.41016;936.8377;;;;
2021/09/18 10:26:58;;;;;;;1.6;1.5;;;;;;;22.65;56.55078;936.7769;;;;
2021/09/18 10:29:23;;;;;;;2.7;2;;;;;;;21.69;59.61426;936.834;;;;
2021/09/18 10:31:48;;;;;;;2.1;1.9;;;;;;;21.19;58.72852;936.7985;;;;
2021/09/18 10:34:13;;;;;;;2.2;1.7;;;;;;;21.71;57.97754;936.7506;;;;
2021/09/18 10:36:42;;;;;;;2.1;1.9;;;;;;;22.78;55.33594;936.7213;;;;
2021/09/18 10:39:07;;;;;;;1.8;1.7;;;;;;;21.8;58.27051;936.6696;;;;
2021/09/18 10:41:32;;;;;;;1.9;1.8;;;;;;;22.07;58.86914;936.7181;;;;
2021/09/18 10:43:58;;;;;;;2.6;1.6;;;;;;;22.15;59.38379;936.7661;;;;
2021/09/18 10:46:25;;;;;;;2.3;1.9;;;;;;;22.28;57.27734;936.7211;;;;
2021/09/18 10:48:57;;;;;;;2;1.8;;;;;;;22.56;55.96387;936.6675;;;;
2021/09/18 10:51:25;;;;;;;2.7;2;;;;;;;22.75;56.49316;936.7087;;;;
2021/09/18 10:54:00;;;;;;;2.4;2.2;;;;;;;23.39;54.42285;936.6844;;;;
2021/09/18 10:56:33;;;;;;;2.2;1.9;;;;;;;23.72;52.93359;936.6616;;;;
2021/09/18 10:59:02;;;;;;;3.3;2;;;;;;;22.45;55.1416;936.7092;;;;
2021/09/18 11:01:48;;;;;;;2.3;1.9;;;;;;;24.01;51.7666;936.6689;;;;
2021/09/18 11:04:17;;;;;;;3.1;1.9;;;;;;;23.54;51.5957;936.6369;;;;
2021/09/18 11:06:44;;;;;;;2.3;1.9;;;;;;;22.97;53.64355;936.6625;;;;
2021/09/18 11:09:07;;;;;;;2;1.7;;;;;;;24.46;49.22656;936.6677;;;;
2021/09/18 11:11:37;;;;;;;2.1;1.9;;;;;;;22.69;53.01074;936.6269;;;;
2021/09/18 11:14:02;;;;;;;1.8;1.7;;;;;;;23.09;54.77344;936.6369;;;;
2021/09/18 11:16:41;;;;;;;1.9;1.6;;;;;;;23.14;53.00586;936.59;;;;
2021/09/18 11:19:08;;;;;;;1.6;1.5;;;;;;;23.93;49.49805;936.5164;;;;
2021/09/18 11:21:32;;;;;;;2;1.8;;;;;;;22.78;54.56055;936.5589;;;;
2021/09/18 11:24:00;;;;;;;1.8;1.4;;;;;;;24.06;49.26563;936.4189;;;;
2021/09/18 11:26:25;;;;;;;1.9;1.7;;;;;;;23.91;49.99023;936.4802;;;;
2021/09/18 11:28:51;;;;;;;2;1.8;;;;;;;23.78;52.24707;936.4562;;;;
2021/09/18 11:31:20;;;;;;;2.6;1.8;;;;;;;23.4;53.48242;936.3348;;;;
2021/09/18 11:33:54;;;;;;;2;1.8;;;;;;;22.71;54.01074;936.3906;;;;
2021/09/18 11:36:19;;;;;;;1.8;1.6;;;;;;;23.4;52.36719;936.4077;;;;
2021/09/18 11:38:43;;;;;;;2.1;1.9;;;;;;;23.3;54.37695;936.4063;;;;
2021/09/18 11:41:09;;;;;;;1.8;1.6;;;;;;;23.41;52.27344;936.3909;;;;
2021/09/18 11:43:36;;;;;;;1.8;1.7;;;;;;;23.58;50.62402;936.416;;;;
2021/09/18 11:46:03;;;;;;;1.8;1.7;;;;;;;23;52.12012;936.445;;;;
2021/09/18 11:48:29;;;;;;;2.3;1.9;;;;;;;22.02;56.83398;936.3901;;;;
2021/09/18 11:50:54;;;;;;;1.8;1.7;;;;;;;22.17;55.05957;936.4345;;;;
2021/09/18 11:53:19;;;;;;;2.1;1.6;;;;;;;22.31;52.54297;936.4764;;;;
2021/09/18 11:55:45;;;;;;;1.8;1.7;;;;;;;21.83;56.07324;936.3719;;;;
2021/09/18 11:58:09;;;;;;;2.7;2;;;;;;;22.13;54.71387;936.4514;;;;
2021/09/18 12:00:35;;;;;;;1.5;1.4;;;;;;;22.78;52.99805;936.4123;;;;
2021/09/18 12:03:00;;;;;;;2;1.7;;;;;;;22.45;52.86523;936.378;;;;
2021/09/18 12:05:25;;;;;;;1.7;1.6;;;;;;;22.08;55.78711;936.3495;;;;
2021/09/18 12:07:51;;;;;;;1.7;1.6;;;;;;;22.29;53.99609;936.3173;;;;
2021/09/18 12:10:17;;;;;;;1.9;1.7;;;;;;;22.36;54.2627;936.2952;;;;
2021/09/18 12:12:43;;;;;;;1.8;1.7;;;;;;;22.27;54.82617;936.2793;;;;
2021/09/18 12:15:10;;;;;;;2.7;2;;;;;;;21.46;56.62207;936.3088;;;;
2021/09/18 12:17:42;;;;;;;2;1.9;;;;;;;21.07;59.78906;936.2414;;;;
2021/09/18 12:20:10;;;;;;;1.8;1.7;;;;;;;21.35;57.45117;936.267;;;;
2021/09/18 12:22:35;;;;;;;2.3;2;;;;;;;21.2;56.84668;936.1647;;;;
2021/09/18 12:25:00;;;;;;;2;1.8;;;;;;;21.59;55.38477;936.1525;;;;
2021/09/18 12:27:25;;;;;;;1.5;1.4;;;;;;;21.59;55.95898;936.1233;;;;
2021/09/18 12:29:52;;;;;;;1.9;1.8;;;;;;;21.72;55.94141;936.1505;;;;
2021/09/18 12:32:17;;;;;;;1.8;1.6;;;;;;;21.64;56.1416;936.1655;;;;
2021/09/18 12:34:42;;;;;;;2.8;1.9;;;;;;;21.66;58.13477;936.1301;;;;
2021/09/18 12:37:10;;;;;;;1.9;1.5;;;;;;;21.73;54.53613;936.0854;;;;
2021/09/18 12:39:33;;;;;;;1.6;1.5;;;;;;;21.89;54.54395;936.122;;;;
2021/09/18 12:42:00;;;;;;;1.8;1.5;;;;;;;21.97;54.47266;936.1682;;;;
2021/09/18 12:44:28;;;;;;;1.7;1.6;;;;;;;22.41;51.32324;936.0563;;;;
2021/09/18 12:46:53;;;;;;;1.7;1.6;;;;;;;22.49;52.18945;936.0721;;;;
2021/09/18 12:49:18;;;;;;;1.6;1.5;;;;;;;22.35;51.11719;936.2122;;;;
2021/09/18 12:51:43;;;;;;;1.6;1.5;;;;;;;22.46;52.02051;936.217;;;;
2021/09/18 12:54:10;;;;;;;1.5;1.4;;;;;;;22.37;52.70313;936.165;;;;
2021/09/18 12:56:36;;;;;;;1.8;1.6;;;;;;;22.72;50.99609;936.1945;;;;
2021/09/18 12:59:03;;;;;;;2.6;1.8;;;;;;;22.25;54.8584;936.1672;;;;
2021/09/18 13:01:28;;;;;;;2;1.6;;;;;;;22.75;51.96191;936.1691;;;;
2021/09/18 13:03:58;;;;;;;2.1;1.5;;;;;;;22.88;51.11914;936.1531;;;;
2021/09/18 13:06:23;;;;;;;1.7;1.5;;;;;;;22.74;51.74902;936.2545;;;;
2021/09/18 13:08:48;;;;;;;1.8;1.7;;;;;;;22.58;50.22852;936.1465;;;;
2021/09/18 13:11:17;;;;;;;1.7;1.4;;;;;;;22.7;51.25195;936.1206;;;;
2021/09/18 13:13:45;;;;;;;1.6;1.5;;;;;;;22.58;51.01465;936.1707;;;;
2021/09/18 13:16:10;;;;;;;1.7;1.6;;;;;;;22.36;51.70508;936.2449;;;;
2021/09/18 13:18:35;;;;;;;1.6;1.5;;;;;;;22.39;50.21875;936.2356;;;;
2021/09/18 13:21:00;;;;;;;1.5;1.4;;;;;;;22.63;50.22266;936.229;;;;
2021/09/18 13:23:30;;;;;;;2.2;1.5;;;;;;;22.5;52.76563;936.1222;;;;
2021/09/18 13:25:55;;;;;;;2.3;1.6;;;;;;;22.69;49.79395;936.1757;;;;
2021/09/18 13:28:25;;;;;;;2.9;1.8;;;;;;;22.88;49.70996;936.2261;;;;
2021/09/18 13:30:47;;;;;;;1.5;1.4;;;;;;;22.57;50.18066;936.1744;;;;
2021/09/18 13:33:12;;;;;;;1.5;1.4;;;;;;;22.54;51.64355;936.1658;;;;
2021/09/18 13:35:37;;;;;;;1.6;1.5;;;;;;;22.7;50.28809;936.1379;;;;
2021/09/18 13:38:13;;;;;;;1.8;1.6;;;;;;;22.55;51.32813;936.1548;;;;
2021/09/18 13:40:40;;;;;;;2;1.8;;;;;;;22.56;51.72852;936.1715;;;;
2021/09/18 13:43:05;;;;;;;1.7;1.6;;;;;;;22.21;52.97754;936.1108;;;;
2021/09/18 13:45:30;;;;;;;1.7;1.6;;;;;;;22.45;51.8916;936.1591;;;;
2021/09/18 13:47:56;;;;;;;1.7;1.4;;;;;;;22.29;50.48828;936.0783;;;;
2021/09/18 13:50:22;;;;;;;1.9;1.7;;;;;;;22.35;53.0166;936.093;;;;
2021/09/18 13:52:48;;;;;;;2.2;1.6;;;;;;;22.41;51.05469;936.0197;;;;
2021/09/18 13:55:13;;;;;;;1.7;1.6;;;;;;;22.32;52.46191;936.1079;;;;
2021/09/18 13:57:43;;;;;;;2.8;1.5;;;;;;;22.21;50.88965;936.0556;;;;
2021/09/18 14:00:13;;;;;;;2.3;1.5;;;;;;;22.11;51.61719;935.9769;;;;
2021/09/18 14:02:38;;;;;;;2;1.5;;;;;;;22.27;51.91602;936.032;;;;
2021/09/18 14:05:03;;;;;;;1.8;1.5;;;;;;;23.12;49.0791;936.0139;;;;
2021/09/18 14:07:28;;;;;;;1.9;1.6;;;;;;;24;46.99902;935.9805;;;;
2021/09/18 14:09:55;;;;;;;1.4;1.3;;;;;;;24.61;44.70508;936.0123;;;;
2021/09/18 14:12:18;;;;;;;1.8;1.4;;;;;;;24.08;45.66504;936.0656;;;;
2021/09/18 14:14:44;;;;;;;2.3;1.2;;;;;;;24.46;46.44531;936.0099;;;;
2021/09/18 14:17:09;;;;;;;1.8;1.7;;;;;;;23.65;47.52637;935.991;;;;
2021/09/18 14:19:34;;;;;;;2.1;1.6;;;;;;;23.52;48.64063;935.9623;;;;
2021/09/18 14:22:02;;;;;;;1.8;1.4;;;;;;;23.7;47.88379;935.9327;;;;
2021/09/18 14:24:31;;;;;;;2;1.7;;;;;;;23.65;47.52637;935.9369;;;;
2021/09/18 14:26:59;;;;;;;1.7;1.5;;;;;;;23.69;47.61133;935.9164;;;;
2021/09/18 14:29:26;;;;;;;1.6;1.5;;;;;;;23.48;48.54199;935.8755;;;;
2021/09/18 14:31:51;;;;;;;1.8;1.4;;;;;;;23.19;48.85254;935.8752;;;;
2021/09/18 14:34:15;;;;;;;2.6;1.5;;;;;;;22.44;50.82324;935.9214;;;;
2021/09/18 14:36:41;;;;;;;1.8;1.7;;;;;;;22.4;51.12305;935.8205;;;;
2021/09/18 14:39:09;;;;;;;1.7;1.6;;;;;;;22.42;50.30371;935.8516;;;;
2021/09/18 14:41:34;;;;;;;2;1.6;;;;;;;22.37;50.86035;935.8455;;;;
2021/09/18 14:44:00;;;;;;;1.7;1.6;;;;;;;22.19;51.05176;935.7791;;;;
2021/09/18 14:46:28;;;;;;;2.1;1.4;;;;;;;21.87;53.1123;935.8494;;;;
2021/09/18 14:48:53;;;;;;;2.5;1.7;;;;;;;21.59;53.6875;935.8585;;;;
2021/09/18 14:51:20;;;;;;;2.2;1.7;;;;;;;21.74;54.09277;935.8865;;;;
2021/09/18 14:53:45;;;;;;;1.8;1.7;;;;;;;22.04;53.12207;935.8837;;;;
2021/09/18 14:56:12;;;;;;;2;1.5;;;;;;;22.08;51.83594;935.8606;;;;
2021/09/18 14:58:37;;;;;;;1.5;1.4;;;;;;;21.92;52.09863;935.8484;;;;
2021/09/18 15:01:05;;;;;;;1.7;1.4;;;;;;;21.46;54.86621;935.7845;;;;
2021/09/18 15:03:30;;;;;;;1.4;1.2;;;;;;;21.16;54.10352;935.8867;;;;
2021/09/18 15:05:57;;;;;;;1.7;1.4;;;;;;;20.92;54.02734;935.8594;;;;
2021/09/18 15:08:22;;;;;;;1.6;1.5;;;;;;;20.54;56.63281;935.8868;;;;
2021/09/18 15:10:47;;;;;;;1.9;1.8;;;;;;;20.75;55.74902;935.8484;;;;
2021/09/18 15:13:15;;;;;;;3.1;1.8;;;;;;;20.69;56.66406;935.9038;;;;
2021/09/18 15:15:40;;;;;;;2.6;1.9;;;;;;;20.25;57.17969;935.8697;;;;
2021/09/18 15:18:13;;;;;;;2.3;2.1;;;;;;;20.15;57.69336;935.7939;;;;
2021/09/18 15:20:41;;;;;;;2.2;1.9;;;;;;;20.29;57.16113;935.8652;;;;
2021/09/18 15:23:06;;;;;;;2;1.7;;;;;;;20.39;57.16211;935.8248;;;;
2021/09/18 15:25:38;;;;;;;1.8;1.6;;;;;;;20.54;57.11328;935.8745;;;;
2021/09/18 15:28:01;;;;;;;3.1;2;;;;;;;20.64;57.0791;935.8398;;;;
2021/09/18 15:30:26;;;;;;;1.8;1.6;;;;;;;20.51;57.5293;935.8439;;;;
2021/09/18 15:32:55;;;;;;;2.8;1.6;;;;;;;20.48;57.80566;935.8376;;;;
2021/09/18 15:35:20;;;;;;;2;1.8;;;;;;;20.43;57.19238;935.8053;;;;
2021/09/18 15:37:45;;;;;;;2.2;1.8;;;;;;;20.41;57.5498;935.7921;;;;
2021/09/18 15:40:11;;;;;;;2.3;1.6;;;;;;;20.41;57.83008;935.8212;;;;